createdAt,value
2023-03-06T00:01:28.955Z,5.40
2023-03-06T00:03:57.268Z,5.40
2023-03-06T00:06:25.491Z,5.40
2023-03-06T00:08:55.202Z,5.40
2023-03-06T00:11:23.413Z,5.30
2023-03-06T00:13:53.118Z,5.30
2023-03-06T00:16:21.543Z,5.20
2023-03-06T00:18:49.840Z,5.20
2023-03-06T00:21:18.137Z,5.20
2023-03-06T00:23:46.431Z,5.20
2023-03-06T00:26:15.958Z,5.20
2023-03-06T00:28:44.628Z,5.10
2023-03-06T00:31:13.002Z,5.10
2023-03-06T00:33:42.249Z,5.10
2023-03-06T00:36:11.147Z,5.10
2023-03-06T00:38:39.313Z,5.10
2023-03-06T00:41:11.926Z,5.10
2023-03-06T00:43:41.732Z,5.00
2023-03-06T00:46:10.072Z,5.10
2023-03-06T00:48:38.406Z,5.10
2023-03-06T00:51:07.000Z,5.10
2023-03-06T00:53:35.246Z,5.10
2023-03-06T00:56:03.454Z,5.10
2023-03-06T00:58:31.683Z,5.00
2023-03-06T01:01:01.313Z,5.00
2023-03-06T01:03:29.747Z,5.00
2023-03-06T01:05:58.164Z,4.90
2023-03-06T01:08:26.396Z,4.90
2023-03-06T01:10:54.751Z,4.80
2023-03-06T01:13:22.984Z,4.80
2023-03-06T01:15:51.213Z,4.80
2023-03-06T01:18:21.075Z,4.80
2023-03-06T01:20:50.240Z,4.80
2023-03-06T01:23:18.550Z,4.70
2023-03-06T01:25:47.208Z,4.80
2023-03-06T01:28:15.420Z,4.80
2023-03-06T01:30:43.634Z,4.80
2023-03-06T01:33:11.806Z,4.80
2023-03-06T01:35:41.518Z,4.80
2023-03-06T01:38:09.991Z,4.80
2023-03-06T01:40:39.028Z,4.80
2023-03-06T01:43:11.783Z,4.80
2023-03-06T01:46:18.613Z,4.70
2023-03-06T01:48:48.548Z,4.70
2023-03-06T01:51:18.581Z,4.70
2023-03-06T01:53:48.080Z,4.70
2023-03-06T01:56:17.066Z,4.70
2023-03-06T01:58:46.221Z,4.70
2023-03-06T02:01:16.822Z,4.60
2023-03-06T02:03:47.261Z,4.60
2023-03-06T02:06:19.808Z,4.70
2023-03-06T02:08:48.989Z,4.70
2023-03-06T02:11:19.633Z,4.70
2023-03-06T02:13:50.051Z,4.70
2023-03-06T02:16:20.934Z,4.70
2023-03-06T02:18:50.714Z,4.70
2023-03-06T02:21:25.276Z,4.70
2023-03-06T02:24:05.872Z,4.70
2023-03-06T02:26:38.492Z,4.70
2023-03-06T02:29:08.312Z,4.70
2023-03-06T02:31:36.883Z,4.80
2023-03-06T02:34:09.242Z,4.80
2023-03-06T02:36:42.741Z,4.80
2023-03-06T02:39:11.484Z,4.70
2023-03-06T02:41:41.271Z,4.70
2023-03-06T02:44:09.762Z,4.70
2023-03-06T02:46:37.985Z,4.70
2023-03-06T02:49:06.250Z,4.60
2023-03-06T02:51:34.791Z,4.60
2023-03-06T02:54:03.198Z,4.60
2023-03-06T02:56:31.455Z,4.60
2023-03-06T02:59:01.031Z,4.60
2023-03-06T03:01:29.349Z,4.60
2023-03-06T03:03:57.639Z,4.60
2023-03-06T03:06:25.828Z,4.60
2023-03-06T03:08:53.975Z,4.50
2023-03-06T03:11:22.489Z,4.50
2023-03-06T03:13:50.809Z,4.50
2023-03-06T03:16:20.449Z,4.50
2023-03-06T03:18:50.279Z,4.40
2023-03-06T03:21:19.865Z,4.40
2023-03-06T03:23:48.122Z,4.40
2023-03-06T03:26:18.654Z,4.40
2023-03-06T03:28:47.214Z,4.40
2023-03-06T03:31:16.044Z,4.40
2023-03-06T03:33:45.617Z,4.50
2023-03-06T03:36:13.915Z,4.50
2023-03-06T03:38:42.269Z,4.60
2023-03-06T03:41:10.519Z,4.60
2023-03-06T03:43:38.844Z,4.60
2023-03-06T03:46:07.384Z,4.70
2023-03-06T03:48:35.937Z,4.70
2023-03-06T03:51:08.027Z,4.70
2023-03-06T03:53:36.639Z,4.80
2023-03-06T03:56:05.737Z,4.80
2023-03-06T03:58:34.013Z,4.90
2023-03-06T04:01:02.608Z,4.80
2023-03-06T04:03:30.805Z,4.90
2023-03-06T04:05:59.038Z,4.90
2023-03-06T04:08:28.786Z,4.90
2023-03-06T04:10:57.173Z,4.90
2023-03-06T04:13:25.930Z,4.90
2023-03-06T04:15:55.519Z,4.90
2023-03-06T04:18:24.889Z,4.90
2023-03-06T04:20:53.661Z,4.90
2023-03-06T04:23:22.852Z,4.90
2023-03-06T04:25:52.487Z,4.90
2023-03-06T04:28:21.290Z,4.90
2023-03-06T04:30:49.507Z,4.90
2023-03-06T04:33:17.720Z,5.00
2023-03-06T04:35:45.932Z,4.90
2023-03-06T04:38:14.693Z,5.00
2023-03-06T04:40:44.831Z,4.90
2023-03-06T04:43:14.662Z,5.00
2023-03-06T04:45:42.932Z,4.90
2023-03-06T04:48:13.496Z,4.90
2023-03-06T04:50:42.097Z,4.80
2023-03-06T04:53:11.009Z,4.90
2023-03-06T04:55:39.354Z,4.80
2023-03-06T04:58:07.507Z,4.80
2023-03-06T05:00:37.368Z,4.80
2023-03-06T05:03:05.739Z,4.80
2023-03-06T05:05:34.020Z,4.80
2023-03-06T05:08:02.266Z,4.80
2023-03-06T05:10:30.571Z,4.80
2023-03-06T05:12:58.775Z,4.80
2023-03-06T05:15:27.012Z,4.80
2023-03-06T05:17:56.641Z,4.80
2023-03-06T05:20:24.860Z,4.80
2023-03-06T05:22:53.147Z,4.80
2023-03-06T05:25:21.405Z,4.80
2023-03-06T05:27:49.937Z,4.80
2023-03-06T05:30:18.698Z,4.80
2023-03-06T05:32:46.922Z,4.80
2023-03-06T05:35:20.705Z,4.80
2023-03-06T05:37:49.760Z,4.80
2023-03-06T05:40:19.562Z,4.80
2023-03-06T05:42:47.837Z,4.80
2023-03-06T05:45:16.226Z,4.80
2023-03-06T05:47:44.767Z,4.80
2023-03-06T05:50:14.006Z,4.80
2023-03-06T05:52:44.202Z,4.80
2023-03-06T05:55:13.651Z,4.80
2023-03-06T05:57:41.930Z,4.80
2023-03-06T06:00:12.367Z,4.80
2023-03-06T06:02:40.670Z,4.80
2023-03-06T06:05:11.815Z,4.80
2023-03-06T06:07:41.417Z,4.80
2023-03-06T06:10:12.823Z,4.80
2023-03-06T06:12:41.300Z,4.80
2023-03-06T06:15:10.355Z,4.80
2023-03-06T06:17:38.574Z,4.80
2023-03-06T06:20:07.758Z,4.70
2023-03-06T06:22:38.122Z,4.80
2023-03-06T06:25:07.657Z,4.70
2023-03-06T06:27:37.605Z,4.80
2023-03-06T06:30:07.678Z,4.80
2023-03-06T06:32:36.941Z,4.80
2023-03-06T06:35:05.951Z,4.80
2023-03-06T06:37:34.219Z,4.70
2023-03-06T06:40:02.451Z,4.70
2023-03-06T06:42:38.089Z,4.80
2023-03-06T06:45:11.400Z,4.80
2023-03-06T06:47:41.247Z,4.80
2023-03-06T06:50:12.403Z,4.80
2023-03-06T06:52:40.910Z,4.80
2023-03-06T06:55:10.220Z,4.80
2023-03-06T06:57:38.434Z,4.80
2023-03-06T07:00:07.880Z,4.90
2023-03-06T07:02:37.374Z,4.90
2023-03-06T07:05:06.385Z,5.00
2023-03-06T07:07:35.911Z,5.00
2023-03-06T07:10:06.403Z,5.00
2023-03-06T07:12:35.070Z,5.00
2023-03-06T07:15:04.169Z,5.00
2023-03-06T07:17:32.510Z,5.00
2023-03-06T07:20:02.177Z,5.00
2023-03-06T07:22:41.464Z,5.10
2023-03-06T07:25:17.319Z,5.00
2023-03-06T07:27:52.689Z,5.10
2023-03-06T07:30:22.135Z,5.00
2023-03-06T07:32:53.857Z,5.00
2023-03-06T07:35:24.266Z,5.00
2023-03-06T07:37:53.026Z,5.00
2023-03-06T07:40:22.213Z,5.00
2023-03-06T07:42:50.555Z,5.00
2023-03-06T07:45:18.937Z,5.00
2023-03-06T07:47:47.188Z,4.90
2023-03-06T07:50:15.388Z,4.90
2023-03-06T07:52:45.306Z,4.90
2023-03-06T07:55:14.001Z,5.00
2023-03-06T07:57:42.199Z,4.90
2023-03-06T08:00:13.785Z,4.90
2023-03-06T08:02:43.428Z,5.00
2023-03-06T08:05:15.656Z,5.00
2023-03-06T08:07:46.256Z,5.00
2023-03-06T08:10:16.135Z,5.00
2023-03-06T08:12:44.496Z,5.10
2023-03-06T08:15:14.048Z,5.10
2023-03-06T08:17:42.273Z,5.10
2023-03-06T08:20:11.575Z,5.10
2023-03-06T08:22:39.911Z,5.10
2023-03-06T08:25:10.638Z,5.10
2023-03-06T08:27:39.345Z,5.20
2023-03-06T08:30:09.700Z,5.20
2023-03-06T08:32:39.051Z,5.30
2023-03-06T08:35:08.784Z,5.40
2023-03-06T08:37:37.103Z,5.40
2023-03-06T08:40:06.189Z,5.50
2023-03-06T08:42:35.782Z,5.50
2023-03-06T08:45:04.232Z,5.60
2023-03-06T08:47:32.741Z,5.70
2023-03-06T08:50:01.130Z,5.70
2023-03-06T08:52:29.280Z,5.80
2023-03-06T08:55:02.131Z,5.70
2023-03-06T08:57:30.450Z,5.70
2023-03-06T09:00:00.131Z,5.70
2023-03-06T09:02:28.396Z,5.80
2023-03-06T09:04:56.593Z,5.80
2023-03-06T09:07:24.789Z,5.70
2023-03-06T09:09:57.140Z,5.80
2023-03-06T09:12:25.493Z,5.80
2023-03-06T09:14:53.685Z,5.80
2023-03-06T09:17:23.288Z,5.90
2023-03-06T09:19:52.436Z,5.90
2023-03-06T09:22:20.661Z,5.90
2023-03-06T09:24:49.205Z,5.90
2023-03-06T09:27:17.608Z,5.80
2023-03-06T09:29:45.804Z,5.80
2023-03-06T09:32:13.950Z,5.80
2023-03-06T09:34:43.628Z,5.80
2023-03-06T09:37:11.730Z,5.80
2023-03-06T09:39:39.922Z,5.80
2023-03-06T09:42:12.085Z,5.80
2023-03-06T09:44:43.271Z,5.80
2023-03-06T09:47:41.353Z,5.90
2023-03-06T09:50:28.626Z,5.90
2023-03-06T09:53:15.284Z,6.00
2023-03-06T09:55:46.894Z,6.00
2023-03-06T09:58:18.472Z,6.00
2023-03-06T10:00:55.828Z,6.00
2023-03-06T10:03:29.155Z,6.00
2023-03-06T10:06:05.590Z,6.00
2023-03-06T10:08:45.479Z,6.00
2023-03-06T10:11:19.419Z,6.00
2023-03-06T10:13:50.671Z,6.00
2023-03-06T10:16:30.258Z,6.00
2023-03-06T10:19:03.125Z,6.10
2023-03-06T10:21:45.222Z,6.30
2023-03-06T10:24:28.209Z,6.20
2023-03-06T10:27:01.029Z,6.30
2023-03-06T10:29:56.386Z,6.30
2023-03-06T10:32:47.691Z,6.30
2023-03-06T10:35:20.103Z,6.40
2023-03-06T10:37:49.967Z,6.40
2023-03-06T10:40:21.864Z,6.40
2023-03-06T10:43:11.891Z,6.40
2023-03-06T10:45:55.526Z,6.40
2023-03-06T10:48:29.253Z,6.40
2023-03-06T10:51:27.956Z,6.50
2023-03-06T10:54:00.130Z,6.40
2023-03-06T10:56:34.205Z,6.50
2023-03-06T10:59:11.944Z,6.40
2023-03-06T11:01:40.603Z,6.40
2023-03-06T11:04:25.139Z,6.40
2023-03-06T11:07:07.507Z,6.40
2023-03-06T11:09:37.545Z,6.40
2023-03-06T11:12:28.318Z,6.40
2023-03-06T11:15:22.093Z,6.40
2023-03-06T11:17:53.517Z,6.40
2023-03-06T11:20:23.966Z,6.40
2023-03-06T11:23:00.263Z,6.30
2023-03-06T11:25:34.763Z,6.30
2023-03-06T11:28:06.732Z,6.30
2023-03-06T11:30:42.698Z,6.40
2023-03-06T11:33:18.729Z,6.40
2023-03-06T11:35:55.137Z,6.40
2023-03-06T11:38:39.783Z,6.40
2023-03-06T11:41:20.022Z,6.40
2023-03-06T11:43:57.930Z,6.40
2023-03-06T11:46:29.341Z,6.50
2023-03-06T11:49:04.833Z,6.40
2023-03-06T11:51:40.278Z,6.40
2023-03-06T11:54:13.570Z,6.40
2023-03-06T11:56:52.638Z,6.40
2023-03-06T11:59:48.791Z,6.40
2023-03-06T12:02:30.465Z,6.40
2023-03-06T12:05:12.705Z,6.40
2023-03-06T12:07:50.331Z,6.40
2023-03-06T12:10:23.800Z,6.50
2023-03-06T12:16:33.113Z,6.50
2023-03-06T12:19:11.723Z,6.60
2023-03-06T12:21:51.045Z,6.60
2023-03-06T12:24:41.050Z,6.60
2023-03-06T12:27:20.850Z,6.60
2023-03-06T12:30:03.972Z,6.60
2023-03-06T12:32:48.241Z,6.70
2023-03-06T12:35:28.960Z,6.60
2023-03-06T12:38:05.982Z,6.70
2023-03-06T12:40:59.168Z,6.70
2023-03-06T12:43:58.859Z,6.80
2023-03-06T12:46:30.472Z,6.80
2023-03-06T12:49:05.150Z,6.90
2023-03-06T12:51:34.480Z,6.80
2023-03-06T12:54:04.171Z,6.90
2023-03-06T12:56:33.971Z,6.90
2023-03-06T12:59:35.303Z,6.90
2023-03-06T13:02:31.963Z,7.00
2023-03-06T13:05:29.842Z,7.00
2023-03-06T13:08:11.972Z,7.10
2023-03-06T13:10:43.237Z,7.20
2023-03-06T13:13:31.416Z,7.20
2023-03-06T13:16:13.172Z,7.30
2023-03-06T13:18:58.406Z,7.30
2023-03-06T13:22:01.674Z,7.30
2023-03-06T13:24:32.398Z,7.30
2023-03-06T13:27:06.926Z,7.30
2023-03-06T13:30:22.037Z,7.30
2023-03-06T13:32:52.729Z,7.20
2023-03-06T13:35:56.662Z,7.20
2023-03-06T13:38:33.927Z,7.20
2023-03-06T13:41:41.259Z,7.10
2023-03-06T13:44:48.943Z,7.10
2023-03-06T13:47:55.761Z,7.00
2023-03-06T13:50:38.278Z,7.00
2023-03-06T13:53:51.323Z,7.00
2023-03-06T13:56:36.006Z,7.10
2023-03-06T13:59:41.597Z,7.10
2023-03-06T14:02:36.813Z,7.10
2023-03-06T14:05:12.913Z,7.10
2023-03-06T14:07:43.850Z,7.10
2023-03-06T14:10:22.458Z,7.10
2023-03-06T14:13:03.066Z,7.20
2023-03-06T14:15:41.764Z,7.20
2023-03-06T14:18:17.936Z,7.30
2023-03-06T14:20:50.664Z,7.30
2023-03-06T14:23:28.317Z,7.30
2023-03-06T14:26:03.492Z,7.30
2023-03-06T14:28:34.950Z,7.30
2023-03-06T14:31:05.398Z,7.30
2023-03-06T14:33:44.727Z,7.30
2023-03-06T14:36:16.248Z,7.30
2023-03-06T14:38:47.627Z,7.20
2023-03-06T14:41:24.997Z,7.20
2023-03-06T14:44:08.120Z,7.20
2023-03-06T14:46:37.094Z,7.10
2023-03-06T14:49:08.402Z,7.10
2023-03-06T14:51:41.664Z,7.20
2023-03-06T14:54:16.972Z,7.10
2023-03-06T14:56:48.144Z,7.10
2023-03-06T14:59:22.064Z,7.10
2023-03-06T15:01:52.954Z,7.10
2023-03-06T15:04:29.680Z,7.10
2023-03-06T15:06:58.884Z,7.20
2023-03-06T15:09:30.195Z,7.20
2023-03-06T15:12:00.427Z,7.20
2023-03-06T15:14:38.308Z,7.10
2023-03-06T15:17:28.877Z,7.10
2023-03-06T15:19:58.837Z,7.00
2023-03-06T15:22:30.479Z,7.00
2023-03-06T15:25:20.832Z,7.10
2023-03-06T15:27:51.059Z,7.10
2023-03-06T15:30:26.234Z,7.10
2023-03-06T15:33:10.259Z,7.10
2023-03-06T15:35:39.498Z,7.10
2023-03-06T15:38:25.355Z,7.00
2023-03-06T15:40:59.566Z,7.00
2023-03-06T15:43:29.449Z,7.00
2023-03-06T15:46:01.616Z,7.00
2023-03-06T15:48:30.003Z,6.90
2023-03-06T15:50:58.726Z,6.90
2023-03-06T15:53:27.154Z,6.80
2023-03-06T15:55:55.797Z,6.80
2023-03-06T15:58:26.805Z,6.70
2023-03-06T16:00:55.296Z,6.70
2023-03-06T16:03:24.887Z,6.60
2023-03-06T16:05:53.059Z,6.60
2023-03-06T16:08:21.212Z,6.50
2023-03-06T16:10:51.370Z,6.50
2023-03-06T16:13:26.685Z,6.50
2023-03-06T16:15:55.588Z,6.50
2023-03-06T16:18:25.150Z,6.50
2023-03-06T16:20:53.581Z,6.60
2023-03-06T16:23:21.784Z,6.50
2023-03-06T16:25:50.673Z,6.60
2023-03-06T16:28:19.130Z,6.60
2023-03-06T16:30:47.337Z,6.60
2023-03-06T16:33:15.642Z,6.60
2023-03-06T16:35:47.186Z,6.70
2023-03-06T16:38:16.307Z,6.70
2023-03-06T16:40:44.947Z,6.70
2023-03-06T16:43:16.114Z,6.70
2023-03-06T16:45:44.803Z,6.70
2023-03-06T16:48:17.930Z,6.70
2023-03-06T16:50:47.594Z,6.80
2023-03-06T16:53:16.389Z,6.70
2023-03-06T16:55:44.624Z,6.70
2023-03-06T16:58:12.925Z,6.70
2023-03-06T17:00:41.196Z,6.80
2023-03-06T17:03:09.716Z,6.80
2023-03-06T17:05:39.243Z,6.80
2023-03-06T17:08:09.025Z,6.80
2023-03-06T17:10:41.964Z,6.90
2023-03-06T17:13:10.861Z,6.90
2023-03-06T17:15:39.090Z,6.90
2023-03-06T17:18:07.396Z,7.00
2023-03-06T17:20:35.668Z,6.90
2023-03-06T17:23:03.843Z,6.90
2023-03-06T17:25:34.938Z,6.90
2023-03-06T17:28:03.530Z,6.90
2023-03-06T17:30:31.942Z,6.90
2023-03-06T17:33:00.698Z,6.90
2023-03-06T17:35:29.097Z,7.00
2023-03-06T17:37:58.239Z,6.90
2023-03-06T17:40:26.451Z,6.90
2023-03-06T17:42:56.269Z,6.80
2023-03-06T17:45:24.513Z,6.80
2023-03-06T17:47:55.847Z,6.90
2023-03-06T17:50:23.996Z,6.80
2023-03-06T17:52:52.216Z,6.80
2023-03-06T17:55:20.449Z,6.80
2023-03-06T17:57:48.756Z,6.80
2023-03-06T18:00:20.213Z,6.70
2023-03-06T18:02:48.541Z,6.70
2023-03-06T18:05:18.024Z,6.70
2023-03-06T18:07:46.378Z,6.70
2023-03-06T18:10:14.561Z,6.70
2023-03-06T18:12:42.800Z,6.60
2023-03-06T18:15:11.443Z,6.70
2023-03-06T18:17:41.104Z,6.60
2023-03-06T18:20:10.678Z,6.60
2023-03-06T18:22:39.139Z,6.60
2023-03-06T18:25:07.897Z,6.60
2023-03-06T18:27:37.311Z,6.60
2023-03-06T18:30:06.933Z,6.70
2023-03-06T18:32:36.357Z,6.70
2023-03-06T18:35:09.227Z,6.70
2023-03-06T18:37:37.668Z,6.80
2023-03-06T18:40:06.861Z,6.80
2023-03-06T18:42:35.063Z,6.80
2023-03-06T18:45:03.301Z,6.80
2023-03-06T18:47:31.556Z,6.80
2023-03-06T18:49:59.784Z,6.80
2023-03-06T18:52:29.516Z,6.90
2023-03-06T18:54:57.808Z,6.90
2023-03-06T18:57:29.278Z,6.90
2023-03-06T18:59:58.572Z,6.80
2023-03-06T19:02:27.180Z,6.80
2023-03-06T19:04:55.746Z,6.80
2023-03-06T19:07:23.986Z,6.90
2023-03-06T19:09:53.511Z,6.80
2023-03-06T19:12:21.998Z,6.90
2023-03-06T19:14:50.277Z,6.90
2023-03-06T19:17:18.456Z,6.90
2023-03-06T19:19:49.897Z,6.90
2023-03-06T19:22:18.049Z,6.90
2023-03-06T19:24:46.832Z,6.80
2023-03-06T19:27:16.556Z,6.90
2023-03-06T19:29:45.089Z,6.90
2023-03-06T19:32:13.407Z,6.90
2023-03-06T19:34:41.950Z,6.90
2023-03-06T19:37:10.446Z,6.90
2023-03-06T19:39:38.718Z,6.90
2023-03-06T19:42:07.666Z,6.90
2023-03-06T19:44:39.438Z,6.90
2023-03-06T19:47:11.772Z,6.90
2023-03-06T19:49:40.460Z,6.90
2023-03-06T19:52:13.756Z,6.90
2023-03-06T19:54:42.066Z,6.90
2023-03-06T19:57:10.440Z,6.80
2023-03-06T19:59:40.050Z,6.80
2023-03-06T20:02:08.710Z,6.80
2023-03-06T20:04:37.469Z,6.80
2023-03-06T20:07:05.995Z,6.80
2023-03-06T20:09:35.044Z,6.80
2023-03-06T20:12:03.374Z,6.80
2023-03-06T20:14:31.581Z,6.90
2023-03-06T20:17:01.389Z,6.90
2023-03-06T20:19:29.727Z,6.90
2023-03-06T20:21:58.045Z,6.80
2023-03-06T20:24:26.196Z,6.90
2023-03-06T20:26:57.391Z,6.90
2023-03-06T20:29:28.222Z,6.90
2023-03-06T20:31:57.728Z,7.00
2023-03-06T20:34:27.752Z,6.90
2023-03-06T20:36:56.854Z,7.00
2023-03-06T20:39:25.313Z,7.00
2023-03-06T20:41:53.563Z,7.00
2023-03-06T20:44:22.944Z,7.00
2023-03-06T20:46:51.922Z,7.00
2023-03-06T20:49:20.702Z,6.90
2023-03-06T20:51:50.389Z,6.80
2023-03-06T20:54:18.565Z,6.80
2023-03-06T20:56:49.996Z,6.60
2023-03-06T20:59:18.489Z,6.50
2023-03-06T21:01:48.008Z,6.40
2023-03-06T21:04:17.074Z,6.30
2023-03-06T21:06:46.887Z,6.30
2023-03-06T21:09:18.009Z,6.30
2023-03-06T21:11:47.016Z,6.30
2023-03-06T21:14:15.614Z,6.30
2023-03-06T21:16:43.882Z,6.40
2023-03-06T21:19:12.383Z,6.40
2023-03-06T21:21:40.589Z,6.40
2023-03-06T21:24:09.394Z,6.50
2023-03-06T21:26:38.948Z,6.40
2023-03-06T21:29:07.752Z,6.50
2023-03-06T21:31:36.008Z,6.50
2023-03-06T21:34:05.536Z,6.50
2023-03-06T21:36:34.014Z,6.50
2023-03-06T21:39:03.677Z,6.50
2023-03-06T21:41:59.736Z,6.50
2023-03-06T21:44:27.960Z,6.50
2023-03-06T21:46:56.187Z,6.50
2023-03-06T21:49:26.099Z,6.50
2023-03-06T21:51:54.895Z,6.50
2023-03-06T21:54:23.416Z,6.50
2023-03-06T21:56:53.096Z,6.50
2023-03-06T21:59:21.281Z,6.40
2023-03-06T22:01:49.525Z,6.40
2023-03-06T22:04:17.743Z,6.30
2023-03-06T22:06:46.137Z,6.30
2023-03-06T22:09:17.175Z,6.30
2023-03-06T22:11:45.560Z,6.30
2023-03-06T22:14:16.393Z,6.30
2023-03-06T22:16:44.621Z,6.30
2023-03-06T22:19:12.882Z,6.30
2023-03-06T22:21:41.154Z,6.30
2023-03-06T22:24:09.524Z,6.40
2023-03-06T22:26:37.653Z,6.40
2023-03-06T22:29:05.893Z,6.50
2023-03-06T22:31:35.524Z,6.50
2023-03-06T22:34:04.026Z,6.50
2023-03-06T22:36:33.078Z,6.50
2023-03-06T22:39:04.167Z,6.50
2023-03-06T22:41:32.664Z,6.50
2023-03-06T22:44:02.982Z,6.50
2023-03-06T22:46:31.683Z,6.50
2023-03-06T22:49:02.268Z,6.60
2023-03-06T22:51:30.750Z,6.60
2023-03-06T22:53:59.096Z,6.60
2023-03-06T22:56:27.497Z,6.60
2023-03-06T22:58:55.805Z,6.70
2023-03-06T23:01:25.908Z,6.60
2023-03-06T23:03:55.896Z,6.60
2023-03-06T23:06:27.297Z,6.60
2023-03-06T23:08:57.206Z,6.60
2023-03-06T23:11:27.880Z,6.60
2023-03-06T23:13:56.923Z,6.50
2023-03-06T23:16:25.610Z,6.50
2023-03-06T23:18:54.748Z,6.50
2023-03-06T23:21:25.614Z,6.40
2023-03-06T23:23:55.583Z,6.50
2023-03-06T23:26:26.322Z,6.40
2023-03-06T23:28:54.600Z,6.40
2023-03-06T23:31:24.750Z,6.40
2023-03-06T23:33:52.997Z,6.30
2023-03-06T23:36:21.254Z,6.30
2023-03-06T23:38:50.839Z,6.20
2023-03-06T23:41:20.827Z,6.20
2023-03-06T23:43:50.295Z,6.20
2023-03-06T23:46:18.893Z,6.10
2023-03-06T23:48:47.291Z,6.10
2023-03-06T23:51:17.587Z,6.10
2023-03-06T23:53:46.446Z,6.00
2023-03-06T23:56:16.142Z,6.00
2023-03-06T23:58:45.428Z,6.00
